sensor_id;sensor_type;location;lat;lon;timestamp;temperature;humidity
65559;DHT22;52203;51.998;5.140;2022-12-07T00:09:09;-0.90;118.99
65559;DHT22;52203;51.998;5.140;2022-12-07T00:11:29;-0.76;118.99
65559;DHT22;52203;51.998;5.140;2022-12-07T00:14:16;-0.75;118.99
65559;DHT22;52203;51.998;5.140;2022-12-07T00:17:12;-0.55;118.99
65559;DHT22;52203;51.998;5.140;2022-12-07T00:26:35;-0.16;118.99
65559;DHT22;52203;51.998;5.140;2022-12-07T00:35:38;-0.28;118.99
65559;DHT22;52203;51.998;5.140;2022-12-07T00:38:12;-0.44;118.99
65559;DHT22;52203;51.998;5.140;2022-12-07T00:40:40;-0.55;118.99
65559;DHT22;52203;51.998;5.140;2022-12-07T00:43:41;-0.60;118.99
65559;DHT22;52203;51.998;5.140;2022-12-07T00:52:34;-0.95;118.99
65559;DHT22;52203;51.998;5.140;2022-12-07T00:55:05;-1.08;118.99
65559;DHT22;52203;51.998;5.140;2022-12-07T00:58:03;-1.24;118.99
65559;DHT22;52203;51.998;5.140;2022-12-07T01:07:30;-1.21;118.99
65559;DHT22;52203;51.998;5.140;2022-12-07T01:10:49;-1.39;118.99
65559;DHT22;52203;51.998;5.140;2022-12-07T01:13:15;-1.47;118.99
65559;DHT22;52203;51.998;5.140;2022-12-07T01:29:46;-1.46;118.99
65559;DHT22;52203;51.998;5.140;2022-12-07T01:40:37;-1.67;118.99
65559;DHT22;52203;51.998;5.140;2022-12-07T01:47:24;-1.77;118.99
65559;DHT22;52203;51.998;5.140;2022-12-07T01:50:37;-1.75;118.99
65559;DHT22;52203;51.998;5.140;2022-12-07T01:56:47;-1.85;118.99
65559;DHT22;52203;51.998;5.140;2022-12-07T01:59:44;-1.75;118.99
65559;DHT22;52203;51.998;5.140;2022-12-07T02:13:31;-1.36;118.99
65559;DHT22;52203;51.998;5.140;2022-12-07T02:30:17;-0.55;118.99
65559;DHT22;52203;51.998;5.140;2022-12-07T02:36:30;-0.50;118.99
65559;DHT22;52203;51.998;5.140;2022-12-07T02:49:02;-0.68;118.99
65559;DHT22;52203;51.998;5.140;2022-12-07T03:23:52;-2.14;118.99
65559;DHT22;52203;51.998;5.140;2022-12-07T03:59:06;-1.76;118.99
65559;DHT22;52203;51.998;5.140;2022-12-07T04:09:08;-1.58;118.99
65559;DHT22;52203;51.998;5.140;2022-12-07T04:12:27;-1.70;118.99
65559;DHT22;52203;51.998;5.140;2022-12-07T04:15:49;-1.71;118.99
65559;DHT22;52203;51.998;5.140;2022-12-07T04:22:26;-1.77;118.99
65559;DHT22;52203;51.998;5.140;2022-12-07T04:42:32;-1.35;118.99
65559;DHT22;52203;51.998;5.140;2022-12-07T04:45:04;-1.41;118.99
65559;DHT22;52203;51.998;5.140;2022-12-07T04:52:06;-1.38;118.99
65559;DHT22;52203;51.998;5.140;2022-12-07T04:58:34;-1.61;118.99
65559;DHT22;52203;51.998;5.140;2022-12-07T05:01:13;-1.63;118.99
65559;DHT22;52203;51.998;5.140;2022-12-07T05:11:38;-1.90;118.99
65559;DHT22;52203;51.998;5.140;2022-12-07T05:21:28;-1.85;118.99
65559;DHT22;52203;51.998;5.140;2022-12-07T06:16:04;-1.02;118.99
65559;DHT22;52203;51.998;5.140;2022-12-07T06:32:23;-1.25;118.99
65559;DHT22;52203;51.998;5.140;2022-12-07T06:35:34;-1.28;118.99
65559;DHT22;52203;51.998;5.140;2022-12-07T06:42:08;-0.95;118.99
65559;DHT22;52203;51.998;5.140;2022-12-07T07:01:20;-1.11;118.99
65559;DHT22;52203;51.998;5.140;2022-12-07T07:03:46;-1.18;118.99
65559;DHT22;52203;51.998;5.140;2022-12-07T07:06:38;-1.29;118.99
65559;DHT22;52203;51.998;5.140;2022-12-07T07:13:44;-1.52;118.99
65559;DHT22;52203;51.998;5.140;2022-12-07T07:20:15;-1.53;118.99
65559;DHT22;52203;51.998;5.140;2022-12-07T07:22:59;-1.46;118.99
65559;DHT22;52203;51.998;5.140;2022-12-07T07:26:05;-1.35;118.99
65559;DHT22;52203;51.998;5.140;2022-12-07T07:38:50;-1.60;118.99
65559;DHT22;52203;51.998;5.140;2022-12-07T07:52:06;-1.65;118.99
65559;DHT22;52203;51.998;5.140;2022-12-07T07:58:28;-1.69;118.99
65559;DHT22;52203;51.998;5.140;2022-12-07T08:04:47;-1.68;118.99
65559;DHT22;52203;51.998;5.140;2022-12-07T08:07:34;-1.70;118.99
65559;DHT22;52203;51.998;5.140;2022-12-07T08:21:15;-1.19;118.99
65559;DHT22;52203;51.998;5.140;2022-12-07T08:24:14;-1.13;118.99
65559;DHT22;52203;51.998;5.140;2022-12-07T08:34:14;-0.91;118.99
65559;DHT22;52203;51.998;5.140;2022-12-07T08:36:45;-0.87;118.99
65559;DHT22;52203;51.998;5.140;2022-12-07T08:43:34;-0.79;118.99
65559;DHT22;52203;51.998;5.140;2022-12-07T08:57:16;-0.10;118.99
65559;DHT22;52203;51.998;5.140;2022-12-07T09:03:07;-0.15;118.99
65559;DHT22;52203;51.998;5.140;2022-12-07T09:05:36;-0.09;118.99
65559;DHT22;52203;51.998;5.140;2022-12-07T09:08:13;-0.06;118.99
65559;DHT22;52203;51.998;5.140;2022-12-07T09:10:39;0.06;118.99
65559;DHT22;52203;51.998;5.140;2022-12-07T09:13:41;0.14;118.99
65559;DHT22;52203;51.998;5.140;2022-12-07T09:16:07;0.17;118.99
65559;DHT22;52203;51.998;5.140;2022-12-07T09:18:32;0.16;118.99
65559;DHT22;52203;51.998;5.140;2022-12-07T09:21:34;0.05;118.99
65559;DHT22;52203;51.998;5.140;2022-12-07T09:24:12;-0.05;118.99
65559;DHT22;52203;51.998;5.140;2022-12-07T09:27:05;-0.15;118.99
65559;DHT22;52203;51.998;5.140;2022-12-07T09:29:33;-0.26;118.99
65559;DHT22;52203;51.998;5.140;2022-12-07T09:32:01;-0.22;118.99
65559;DHT22;52203;51.998;5.140;2022-12-07T09:34:57;-0.05;118.99
65559;DHT22;52203;51.998;5.140;2022-12-07T09:44:27;0.49;118.99
65559;DHT22;52203;51.998;5.140;2022-12-07T09:46:56;0.60;118.99
65559;DHT22;52203;51.998;5.140;2022-12-07T09:56:01;0.86;118.99
65559;DHT22;52203;51.998;5.140;2022-12-07T09:58:36;0.67;118.99
65559;DHT22;52203;51.998;5.140;2022-12-07T10:04:45;0.42;118.99
65559;DHT22;52203;51.998;5.140;2022-12-07T10:07:38;0.38;118.99
65559;DHT22;52203;51.998;5.140;2022-12-07T10:11:15;0.37;118.99
65559;DHT22;52203;51.998;5.140;2022-12-07T10:13:46;0.35;118.99
65559;DHT22;52203;51.998;5.140;2022-12-07T10:23:02;0.18;118.99
65559;DHT22;52203;51.998;5.140;2022-12-07T10:26:04;0.31;118.99
65559;DHT22;52203;51.998;5.140;2022-12-07T10:28:39;0.62;118.99
65559;DHT22;52203;51.998;5.140;2022-12-07T10:31:17;0.79;118.99
65559;DHT22;52203;51.998;5.140;2022-12-07T10:37:57;1.11;118.99
65559;DHT22;52203;51.998;5.140;2022-12-07T11:17:19;0.98;118.99
65559;DHT22;52203;51.998;5.140;2022-12-07T11:20:49;1.03;118.99
65559;DHT22;52203;51.998;5.140;2022-12-07T11:25:55;1.27;118.99
65559;DHT22;52203;51.998;5.140;2022-12-07T11:36:16;1.13;118.99
65559;DHT22;52203;51.998;5.140;2022-12-07T11:39:23;1.18;118.99
65559;DHT22;52203;51.998;5.140;2022-12-07T11:41:57;1.35;118.99
65559;DHT22;52203;51.998;5.140;2022-12-07T11:50:52;2.01;118.99
65559;DHT22;52203;51.998;5.140;2022-12-07T12:01:40;2.11;118.99
65559;DHT22;52203;51.998;5.140;2022-12-07T12:04:21;1.97;118.99
65559;DHT22;52203;51.998;5.140;2022-12-07T12:06:50;2.05;118.99
65559;DHT22;52203;51.998;5.140;2022-12-07T12:10:03;1.92;118.99
65559;DHT22;52203;51.998;5.140;2022-12-07T12:13:25;1.92;118.99
65559;DHT22;52203;51.998;5.140;2022-12-07T12:23:13;1.92;118.99
65559;DHT22;52203;51.998;5.140;2022-12-07T12:25:49;2.01;118.99
65559;DHT22;52203;51.998;5.140;2022-12-07T12:29:21;2.02;118.99
65559;DHT22;52203;51.998;5.140;2022-12-07T12:34:00;1.95;118.99
65559;DHT22;52203;51.998;5.140;2022-12-07T12:39:26;1.86;118.99
65559;DHT22;52203;51.998;5.140;2022-12-07T12:42:02;1.90;118.99
65559;DHT22;52203;51.998;5.140;2022-12-07T12:50:37;1.92;118.99
65559;DHT22;52203;51.998;5.140;2022-12-07T12:59:58;1.73;118.99
65559;DHT22;52203;51.998;5.140;2022-12-07T13:02:53;1.75;118.99
65559;DHT22;52203;51.998;5.140;2022-12-07T13:05:40;1.78;118.99
65559;DHT22;52203;51.998;5.140;2022-12-07T13:08:19;1.78;118.99
65559;DHT22;52203;51.998;5.140;2022-12-07T13:11:43;1.67;118.99
65559;DHT22;52203;51.998;5.140;2022-12-07T13:18:16;1.37;118.99
65559;DHT22;52203;51.998;5.140;2022-12-07T13:20:58;1.24;118.99
65559;DHT22;52203;51.998;5.140;2022-12-07T13:26:37;0.99;118.99
65559;DHT22;52203;51.998;5.140;2022-12-07T13:29:35;1.02;118.99
65559;DHT22;52203;51.998;5.140;2022-12-07T13:32:01;1.07;118.99
65559;DHT22;52203;51.998;5.140;2022-12-07T13:34:56;1.12;118.99
65559;DHT22;52203;51.998;5.140;2022-12-07T13:37:32;1.17;118.99
65559;DHT22;52203;51.998;5.140;2022-12-07T13:40:22;1.33;118.99
65559;DHT22;52203;51.998;5.140;2022-12-07T13:42:59;1.53;118.99
65559;DHT22;52203;51.998;5.140;2022-12-07T13:45:31;1.63;118.99
65559;DHT22;52203;51.998;5.140;2022-12-07T13:48:42;1.69;118.99
65559;DHT22;52203;51.998;5.140;2022-12-07T13:51:33;1.55;118.99
65559;DHT22;52203;51.998;5.140;2022-12-07T13:54:12;1.14;118.99
65559;DHT22;52203;51.998;5.140;2022-12-07T13:57:11;0.82;118.99
65559;DHT22;52203;51.998;5.140;2022-12-07T13:59:49;0.73;118.99
65559;DHT22;52203;51.998;5.140;2022-12-07T14:05:43;0.51;118.99
65559;DHT22;52203;51.998;5.140;2022-12-07T14:13:58;0.93;118.99
65559;DHT22;52203;51.998;5.140;2022-12-07T14:16:36;0.86;118.99
65559;DHT22;52203;51.998;5.140;2022-12-07T14:19:06;0.79;118.99
65559;DHT22;52203;51.998;5.140;2022-12-07T14:22:09;0.78;118.99
65559;DHT22;52203;51.998;5.140;2022-12-07T14:25:32;0.65;118.99
65559;DHT22;52203;51.998;5.140;2022-12-07T14:27:38;0.59;118.99
65559;DHT22;52203;51.998;5.140;2022-12-07T14:30:05;0.43;118.99
65559;DHT22;52203;51.998;5.140;2022-12-07T14:32:35;0.31;118.99
65559;DHT22;52203;51.998;5.140;2022-12-07T14:35:50;0.24;118.99
65559;DHT22;52203;51.998;5.140;2022-12-07T14:38:24;0.17;118.99
65559;DHT22;52203;51.998;5.140;2022-12-07T14:41:04;0.16;118.99
65559;DHT22;52203;51.998;5.140;2022-12-07T14:44:09;0.19;118.99
65559;DHT22;52203;51.998;5.140;2022-12-07T14:46:39;0.21;118.99
65559;DHT22;52203;51.998;5.140;2022-12-07T14:49:13;0.21;118.99
65559;DHT22;52203;51.998;5.140;2022-12-07T14:51:41;0.18;118.99
65559;DHT22;52203;51.998;5.140;2022-12-07T14:54:25;0.18;118.99
65559;DHT22;52203;51.998;5.140;2022-12-07T14:56:55;0.14;118.99
65559;DHT22;52203;51.998;5.140;2022-12-07T14:59:52;0.10;118.99
65559;DHT22;52203;51.998;5.140;2022-12-07T15:02:21;0.07;118.99
65559;DHT22;52203;51.998;5.140;2022-12-07T15:04:47;0.03;118.99
65559;DHT22;52203;51.998;5.140;2022-12-07T15:07:22;0.03;118.99
65559;DHT22;52203;51.998;5.140;2022-12-07T15:09:51;-0.02;118.99
65559;DHT22;52203;51.998;5.140;2022-12-07T15:12:20;-0.05;118.99
65559;DHT22;52203;51.998;5.140;2022-12-07T15:14:45;-0.07;118.99
65559;DHT22;52203;51.998;5.140;2022-12-07T15:17:20;-0.06;118.99
65559;DHT22;52203;51.998;5.140;2022-12-07T15:20:13;-0.06;118.99
65559;DHT22;52203;51.998;5.140;2022-12-07T15:22:53;-0.00;118.99
65559;DHT22;52203;51.998;5.140;2022-12-07T15:25:24;0.06;118.99
65559;DHT22;52203;51.998;5.140;2022-12-07T15:27:50;0.20;118.99
65559;DHT22;52203;51.998;5.140;2022-12-07T15:30:22;-0.08;118.99
65559;DHT22;52203;51.998;5.140;2022-12-07T15:33:07;-0.01;118.99
65559;DHT22;52203;51.998;5.140;2022-12-07T15:39:17;-0.01;118.99
65559;DHT22;52203;51.998;5.140;2022-12-07T15:42:37;0.03;118.99
65559;DHT22;52203;51.998;5.140;2022-12-07T15:52:04;0.14;118.99
65559;DHT22;52203;51.998;5.140;2022-12-07T15:57:38;-0.00;118.99
65559;DHT22;52203;51.998;5.140;2022-12-07T16:02:46;-0.23;118.99
65559;DHT22;52203;51.998;5.140;2022-12-07T16:05:26;-0.27;118.99
65559;DHT22;52203;51.998;5.140;2022-12-07T16:08:04;-0.22;118.99
65559;DHT22;52203;51.998;5.140;2022-12-07T16:10:38;-0.28;118.99
65559;DHT22;52203;51.998;5.140;2022-12-07T16:13:09;-0.39;118.99
65559;DHT22;52203;51.998;5.140;2022-12-07T16:15:57;-0.24;118.99
65559;DHT22;52203;51.998;5.140;2022-12-07T16:24:32;-0.02;118.99
65559;DHT22;52203;51.998;5.140;2022-12-07T16:27:24;-0.05;118.99
65559;DHT22;52203;51.998;5.140;2022-12-07T16:29:55;-0.09;118.99
65559;DHT22;52203;51.998;5.140;2022-12-07T16:32:24;-0.19;118.99
65559;DHT22;52203;51.998;5.140;2022-12-07T16:37:54;-0.32;118.99
65559;DHT22;52203;51.998;5.140;2022-12-07T16:40:46;-0.32;118.99
65559;DHT22;52203;51.998;5.140;2022-12-07T16:44:18;-0.32;118.99
65559;DHT22;52203;51.998;5.140;2022-12-07T16:57:36;-0.32;118.99
65559;DHT22;52203;51.998;5.140;2022-12-07T17:01:07;-0.35;118.99
65559;DHT22;52203;51.998;5.140;2022-12-07T17:03:17;-0.37;118.99
65559;DHT22;52203;51.998;5.140;2022-12-07T17:05:56;-0.40;118.99
65559;DHT22;52203;51.998;5.140;2022-12-07T17:08:21;-0.37;118.99
65559;DHT22;52203;51.998;5.140;2022-12-07T17:18:23;-0.37;118.99
65559;DHT22;52203;51.998;5.140;2022-12-07T17:21:19;-0.31;118.99
65559;DHT22;52203;51.998;5.140;2022-12-07T17:23:51;-0.30;118.99
65559;DHT22;52203;51.998;5.140;2022-12-07T17:26:49;-0.25;118.99
65559;DHT22;52203;51.998;5.140;2022-12-07T17:30:24;-0.20;118.99
65559;DHT22;52203;51.998;5.140;2022-12-07T17:33:01;-0.15;118.99
65559;DHT22;52203;51.998;5.140;2022-12-07T17:35:29;-0.21;118.99
65559;DHT22;52203;51.998;5.140;2022-12-07T17:38:18;-0.24;118.99
65559;DHT22;52203;51.998;5.140;2022-12-07T17:40:44;-0.16;118.99
65559;DHT22;52203;51.998;5.140;2022-12-07T17:43:12;-0.13;118.99
65559;DHT22;52203;51.998;5.140;2022-12-07T17:45:40;-0.08;118.99
65559;DHT22;52203;51.998;5.140;2022-12-07T17:48:58;-0.07;118.99
65559;DHT22;52203;51.998;5.140;2022-12-07T17:51:27;-0.03;118.99
65559;DHT22;52203;51.998;5.140;2022-12-07T17:54:55;0.05;118.99
65559;DHT22;52203;51.998;5.140;2022-12-07T17:57:43;0.07;118.99
65559;DHT22;52203;51.998;5.140;2022-12-07T18:00:28;0.03;118.99
65559;DHT22;52203;51.998;5.140;2022-12-07T18:02:54;0.10;118.99
65559;DHT22;52203;51.998;5.140;2022-12-07T18:05:43;0.04;118.99
65559;DHT22;52203;51.998;5.140;2022-12-07T18:08:59;0.08;118.99
65559;DHT22;52203;51.998;5.140;2022-12-07T18:11:23;0.04;118.99
65559;DHT22;52203;51.998;5.140;2022-12-07T18:13:53;0.08;118.99
65559;DHT22;52203;51.998;5.140;2022-12-07T18:16:41;0.07;118.99
65559;DHT22;52203;51.998;5.140;2022-12-07T18:19:10;0.12;118.99
65559;DHT22;52203;51.998;5.140;2022-12-07T18:21:39;0.15;118.99
65559;DHT22;52203;51.998;5.140;2022-12-07T18:24:16;0.20;118.99
65559;DHT22;52203;51.998;5.140;2022-12-07T18:26:51;0.21;118.99
65559;DHT22;52203;51.998;5.140;2022-12-07T18:29:54;0.20;118.99
65559;DHT22;52203;51.998;5.140;2022-12-07T18:32:30;0.18;118.99
65559;DHT22;52203;51.998;5.140;2022-12-07T18:35:40;0.16;118.99
65559;DHT22;52203;51.998;5.140;2022-12-07T18:38:31;0.13;118.99
65559;DHT22;52203;51.998;5.140;2022-12-07T18:41:06;0.10;118.99
65559;DHT22;52203;51.998;5.140;2022-12-07T18:43:43;0.16;118.99
65559;DHT22;52203;51.998;5.140;2022-12-07T18:46:18;0.17;118.99
65559;DHT22;52203;51.998;5.140;2022-12-07T18:48:44;0.18;118.99
65559;DHT22;52203;51.998;5.140;2022-12-07T18:51:28;0.16;118.99
65559;DHT22;52203;51.998;5.140;2022-12-07T18:54:04;0.20;118.99
65559;DHT22;52203;51.998;5.140;2022-12-07T18:56:36;0.19;118.99
65559;DHT22;52203;51.998;5.140;2022-12-07T18:59:03;0.20;118.99
65559;DHT22;52203;51.998;5.140;2022-12-07T19:02:11;0.17;118.99
65559;DHT22;52203;51.998;5.140;2022-12-07T19:05:04;0.15;118.99
65559;DHT22;52203;51.998;5.140;2022-12-07T19:07:30;0.13;118.99
65559;DHT22;52203;51.998;5.140;2022-12-07T19:10:17;0.12;118.99
65559;DHT22;52203;51.998;5.140;2022-12-07T19:12:49;0.10;118.99
65559;DHT22;52203;51.998;5.140;2022-12-07T19:15:26;0.04;118.99
65559;DHT22;52203;51.998;5.140;2022-12-07T19:18:00;0.06;118.99
65559;DHT22;52203;51.998;5.140;2022-12-07T19:20:44;0.07;118.99
65559;DHT22;52203;51.998;5.140;2022-12-07T19:23:15;0.06;118.99
65559;DHT22;52203;51.998;5.140;2022-12-07T19:26:17;0.05;118.99
65559;DHT22;52203;51.998;5.140;2022-12-07T19:28:49;0.12;118.99
65559;DHT22;52203;51.998;5.140;2022-12-07T19:31:40;0.07;118.99
65559;DHT22;52203;51.998;5.140;2022-12-07T19:34:15;0.02;118.99
65559;DHT22;52203;51.998;5.140;2022-12-07T19:36:45;-0.01;118.99
65559;DHT22;52203;51.998;5.140;2022-12-07T19:39:52;-0.05;118.99
65559;DHT22;52203;51.998;5.140;2022-12-07T19:42:42;-0.07;118.99
65559;DHT22;52203;51.998;5.140;2022-12-07T19:48:23;-0.03;118.99
65559;DHT22;52203;51.998;5.140;2022-12-07T19:50:51;-0.08;118.99
65559;DHT22;52203;51.998;5.140;2022-12-07T19:53:35;-0.09;118.99
65559;DHT22;52203;51.998;5.140;2022-12-07T19:58:45;-0.13;118.99
65559;DHT22;52203;51.998;5.140;2022-12-07T20:01:19;-0.16;118.99
65559;DHT22;52203;51.998;5.140;2022-12-07T20:03:48;-0.15;118.99
65559;DHT22;52203;51.998;5.140;2022-12-07T20:06:43;-0.22;118.99
65559;DHT22;52203;51.998;5.140;2022-12-07T20:09:30;-0.23;118.99
65559;DHT22;52203;51.998;5.140;2022-12-07T20:11:56;-0.28;118.99
65559;DHT22;52203;51.998;5.140;2022-12-07T20:14:43;-0.35;118.99
65559;DHT22;52203;51.998;5.140;2022-12-07T20:17:24;-0.38;118.99
65559;DHT22;52203;51.998;5.140;2022-12-07T20:19:52;-0.39;118.99
65559;DHT22;52203;51.998;5.140;2022-12-07T20:22:23;-0.37;118.99
65559;DHT22;52203;51.998;5.140;2022-12-07T20:24:52;-0.43;118.99
65559;DHT22;52203;51.998;5.140;2022-12-07T20:27:17;-0.40;118.99
65559;DHT22;52203;51.998;5.140;2022-12-07T20:30:06;-0.38;118.99
65559;DHT22;52203;51.998;5.140;2022-12-07T20:32:51;-0.40;118.99
65559;DHT22;52203;51.998;5.140;2022-12-07T20:42:35;-0.46;118.99
65559;DHT22;52203;51.998;5.140;2022-12-07T20:45:21;-0.52;118.99
65559;DHT22;52203;51.998;5.140;2022-12-07T20:47:54;-0.59;118.99
65559;DHT22;52203;51.998;5.140;2022-12-07T20:50:28;-0.55;118.99
65559;DHT22;52203;51.998;5.140;2022-12-07T20:53:00;-0.43;118.99
65559;DHT22;52203;51.998;5.140;2022-12-07T20:55:40;-0.42;118.99
65559;DHT22;52203;51.998;5.140;2022-12-07T21:09:13;-0.37;118.99
65559;DHT22;52203;51.998;5.140;2022-12-07T21:12:39;-0.34;118.99
65559;DHT22;52203;51.998;5.140;2022-12-07T21:15:13;-0.41;118.99
65559;DHT22;52203;51.998;5.140;2022-12-07T21:17:57;-0.42;118.99
65559;DHT22;52203;51.998;5.140;2022-12-07T21:20:52;-0.45;118.99
65559;DHT22;52203;51.998;5.140;2022-12-07T21:23:23;-0.43;118.99
65559;DHT22;52203;51.998;5.140;2022-12-07T21:26:52;-0.51;118.99
65559;DHT22;52203;51.998;5.140;2022-12-07T21:29:05;-0.53;118.99
65559;DHT22;52203;51.998;5.140;2022-12-07T21:31:34;-0.47;118.99
65559;DHT22;52203;51.998;5.140;2022-12-07T21:34:25;-0.45;118.99
65559;DHT22;52203;51.998;5.140;2022-12-07T21:39:55;-0.37;118.99
65559;DHT22;52203;51.998;5.140;2022-12-07T21:42:24;-0.38;118.99
65559;DHT22;52203;51.998;5.140;2022-12-07T21:59:26;-0.42;118.99
65559;DHT22;52203;51.998;5.140;2022-12-07T22:01:55;-0.44;118.99
65559;DHT22;52203;51.998;5.140;2022-12-07T22:08:09;-0.47;118.99
65559;DHT22;52203;51.998;5.140;2022-12-07T22:10:48;-0.49;118.99
65559;DHT22;52203;51.998;5.140;2022-12-07T22:13:15;-0.41;118.99
65559;DHT22;52203;51.998;5.140;2022-12-07T22:25:49;-0.29;118.99
65559;DHT22;52203;51.998;5.140;2022-12-07T22:48:17;-0.15;118.99
65559;DHT22;52203;51.998;5.140;2022-12-07T22:51:23;-0.13;118.99
65559;DHT22;52203;51.998;5.140;2022-12-07T23:01:55;-0.09;118.99
65559;DHT22;52203;51.998;5.140;2022-12-07T23:04:38;-0.09;118.99
65559;DHT22;52203;51.998;5.140;2022-12-07T23:11:12;-0.09;118.99
65559;DHT22;52203;51.998;5.140;2022-12-07T23:21:09;-0.16;118.99
65559;DHT22;52203;51.998;5.140;2022-12-07T23:30:32;-0.19;118.99
65559;DHT22;52203;51.998;5.140;2022-12-07T23:36:35;-0.21;118.99
65559;DHT22;52203;51.998;5.140;2022-12-07T23:39:25;-0.22;118.99
65559;DHT22;52203;51.998;5.140;2022-12-07T23:42:01;-0.24;118.99
65559;DHT22;52203;51.998;5.140;2022-12-07T23:44:46;-0.26;118.99
65559;DHT22;52203;51.998;5.140;2022-12-07T23:47:15;-0.26;118.99
65559;DHT22;52203;51.998;5.140;2022-12-07T23:49:57;-0.27;118.99
